Terminal Aerodrome Forecast
Issued by NWS Wichita, KS

Home | Current Version | Previous Version | Graphics & Text | Print | Product List | Glossary On
Versions: 1 2 3 4 5 6 7 8 9 10 11 12 13 14 15 16 17 18 19 20 21 22 23 24
000
FTUS43 KICT 032112 CCA
TAFICT
TAF COR
KICT 032112Z 0321/0418 36015G21KT P6SM BKN120 OVC200
     FM040400 02016G22KT P6SM BKN045
     FM040900 02018G26KT 3SM -SN OVC015=

USA.gov is the U.S. government's official web portal to all federal, state and local government web resources and services.